Terminal Aerodrome Forecast
Issued by NWS

Current Version | Previous Version | Text Only | Print | Product List | Glossary On
Versions: 1 2 3 4 5 6 7 8 9 10 11 12 13 14 15 16 17
000
FTUS42 KGSP 250531
TAFGMU
TAF
KGMU 250531Z 2506/2606 00000KT P6SM SKC
     FM251600 06004KT P6SM FEW050
     FM251800 13004KT P6SM FEW060
     FM260100 10005KT P6SM BKN045 PROB30 2601/2605 4SM -TSRA
      OVC025CB
     FM260500 07004KT P6SM BKN015=

USA.gov is the U.S. government's official web portal to all federal, state and local government web resources and services.